sensor_id;sensor_type;location;lat;lon;timestamp;P1;durP1;ratioP1;P2;durP2;ratioP2
42118;SDS011;27783;42.782;23.274;2024-02-23T00:02:12;14.30;;;12.85;;
42118;SDS011;27783;42.782;23.274;2024-02-23T00:04:38;14.45;;;12.95;;
42118;SDS011;27783;42.782;23.274;2024-02-23T00:07:03;13.60;;;12.13;;
42118;SDS011;27783;42.782;23.274;2024-02-23T00:09:29;15.48;;;12.80;;
42118;SDS011;27783;42.782;23.274;2024-02-23T00:11:54;15.40;;;13.00;;
42118;SDS011;27783;42.782;23.274;2024-02-23T00:14:20;18.20;;;14.98;;
42118;SDS011;27783;42.782;23.274;2024-02-23T00:16:47;17.90;;;14.95;;
42118;SDS011;27783;42.782;23.274;2024-02-23T00:21:40;19.42;;;14.95;;
42118;SDS011;27783;42.782;23.274;2024-02-23T00:24:05;17.20;;;15.00;;
42118;SDS011;27783;42.782;23.274;2024-02-23T00:26:31;15.27;;;13.48;;
42118;SDS011;27783;42.782;23.274;2024-02-23T00:28:57;18.55;;;14.68;;
42118;SDS011;27783;42.782;23.274;2024-02-23T00:31:22;21.60;;;15.20;;
42118;SDS011;27783;42.782;23.274;2024-02-23T00:33:48;22.58;;;16.85;;
42118;SDS011;27783;42.782;23.274;2024-02-23T00:36:13;22.30;;;17.27;;
42118;SDS011;27783;42.782;23.274;2024-02-23T00:38:39;19.33;;;15.70;;
42118;SDS011;27783;42.782;23.274;2024-02-23T00:41:05;19.00;;;14.32;;
42118;SDS011;27783;42.782;23.274;2024-02-23T00:43:37;18.67;;;14.30;;
42118;SDS011;27783;42.782;23.274;2024-02-23T00:46:06;16.83;;;13.55;;
42118;SDS011;27783;42.782;23.274;2024-02-23T00:48:32;14.30;;;11.88;;
42118;SDS011;27783;42.782;23.274;2024-02-23T00:50:58;15.70;;;12.10;;
42118;SDS011;27783;42.782;23.274;2024-02-23T00:53:23;22.42;;;16.13;;
42118;SDS011;27783;42.782;23.274;2024-02-23T00:55:49;27.42;;;18.73;;
42118;SDS011;27783;42.782;23.274;2024-02-23T00:58:14;17.98;;;15.50;;
42118;SDS011;27783;42.782;23.274;2024-02-23T01:00:40;19.65;;;14.73;;
42118;SDS011;27783;42.782;23.274;2024-02-23T01:03:08;11.48;;;10.32;;
42118;SDS011;27783;42.782;23.274;2024-02-23T01:05:33;13.38;;;10.85;;
42118;SDS011;27783;42.782;23.274;2024-02-23T01:07:59;11.45;;;9.65;;
42118;SDS011;27783;42.782;23.274;2024-02-23T01:10:24;11.52;;;10.07;;
42118;SDS011;27783;42.782;23.274;2024-02-23T01:12:50;10.18;;;9.07;;
42118;SDS011;27783;42.782;23.274;2024-02-23T01:15:15;12.05;;;9.48;;
42118;SDS011;27783;42.782;23.274;2024-02-23T01:17:41;14.38;;;10.80;;
42118;SDS011;27783;42.782;23.274;2024-02-23T01:20:06;12.68;;;10.52;;
42118;SDS011;27783;42.782;23.274;2024-02-23T01:22:32;13.15;;;10.80;;
42118;SDS011;27783;42.782;23.274;2024-02-23T01:24:57;11.40;;;9.60;;
42118;SDS011;27783;42.782;23.274;2024-02-23T01:27:23;17.95;;;10.13;;
42118;SDS011;27783;42.782;23.274;2024-02-23T01:29:48;13.85;;;11.25;;
42118;SDS011;27783;42.782;23.274;2024-02-23T01:32:13;14.82;;;10.98;;
42118;SDS011;27783;42.782;23.274;2024-02-23T01:34:38;12.10;;;10.90;;
42118;SDS011;27783;42.782;23.274;2024-02-23T01:37:04;11.73;;;10.48;;
42118;SDS011;27783;42.782;23.274;2024-02-23T01:39:29;11.75;;;10.60;;
42118;SDS011;27783;42.782;23.274;2024-02-23T01:41:55;13.32;;;10.23;;
42118;SDS011;27783;42.782;23.274;2024-02-23T01:44:20;11.52;;;10.43;;
42118;SDS011;27783;42.782;23.274;2024-02-23T01:46:46;11.68;;;10.27;;
42118;SDS011;27783;42.782;23.274;2024-02-23T01:49:12;12.88;;;11.52;;
42118;SDS011;27783;42.782;23.274;2024-02-23T01:51:39;17.02;;;12.45;;
42118;SDS011;27783;42.782;23.274;2024-02-23T01:54:04;15.60;;;12.20;;
42118;SDS011;27783;42.782;23.274;2024-02-23T01:56:31;12.23;;;10.52;;
42118;SDS011;27783;42.782;23.274;2024-02-23T01:58:58;16.88;;;12.32;;
42118;SDS011;27783;42.782;23.274;2024-02-23T02:01:24;14.70;;;12.30;;
42118;SDS011;27783;42.782;23.274;2024-02-23T02:03:50;15.63;;;12.63;;
42118;SDS011;27783;42.782;23.274;2024-02-23T02:06:15;13.77;;;12.00;;
42118;SDS011;27783;42.782;23.274;2024-02-23T02:08:41;14.10;;;12.43;;
42118;SDS011;27783;42.782;23.274;2024-02-23T02:11:06;14.82;;;11.95;;
42118;SDS011;27783;42.782;23.274;2024-02-23T02:13:31;15.63;;;11.57;;
42118;SDS011;27783;42.782;23.274;2024-02-23T02:15:58;14.45;;;11.55;;
42118;SDS011;27783;42.782;23.274;2024-02-23T02:18:25;19.90;;;12.85;;
42118;SDS011;27783;42.782;23.274;2024-02-23T02:20:53;15.18;;;11.70;;
42118;SDS011;27783;42.782;23.274;2024-02-23T02:23:20;13.80;;;12.00;;
42118;SDS011;27783;42.782;23.274;2024-02-23T02:25:45;13.43;;;11.57;;
42118;SDS011;27783;42.782;23.274;2024-02-23T02:28:17;15.32;;;10.60;;
42118;SDS011;27783;42.782;23.274;2024-02-23T02:30:43;12.85;;;10.98;;
42118;SDS011;27783;42.782;23.274;2024-02-23T02:33:08;14.40;;;11.15;;
42118;SDS011;27783;42.782;23.274;2024-02-23T02:35:33;14.38;;;10.65;;
42118;SDS011;27783;42.782;23.274;2024-02-23T02:37:59;12.32;;;10.93;;
42118;SDS011;27783;42.782;23.274;2024-02-23T02:40:24;18.13;;;13.40;;
42118;SDS011;27783;42.782;23.274;2024-02-23T02:42:49;20.88;;;18.10;;
42118;SDS011;27783;42.782;23.274;2024-02-23T02:45:15;21.60;;;18.55;;
42118;SDS011;27783;42.782;23.274;2024-02-23T02:47:41;17.60;;;15.25;;
42118;SDS011;27783;42.782;23.274;2024-02-23T02:50:07;17.42;;;13.55;;
42118;SDS011;27783;42.782;23.274;2024-02-23T02:52:33;19.17;;;15.60;;
42118;SDS011;27783;42.782;23.274;2024-02-23T02:54:58;16.77;;;14.02;;
42118;SDS011;27783;42.782;23.274;2024-02-23T02:57:24;18.55;;;13.73;;
42118;SDS011;27783;42.782;23.274;2024-02-23T02:59:49;19.08;;;14.95;;
42118;SDS011;27783;42.782;23.274;2024-02-23T03:02:15;16.15;;;13.65;;
42118;SDS011;27783;42.782;23.274;2024-02-23T03:04:47;16.75;;;12.70;;
42118;SDS011;27783;42.782;23.274;2024-02-23T03:07:13;15.90;;;14.25;;
42118;SDS011;27783;42.782;23.274;2024-02-23T03:09:38;15.15;;;12.57;;
42118;SDS011;27783;42.782;23.274;2024-02-23T03:12:04;17.73;;;15.48;;
42118;SDS011;27783;42.782;23.274;2024-02-23T03:14:29;19.15;;;17.15;;
42118;SDS011;27783;42.782;23.274;2024-02-23T03:16:54;21.23;;;18.92;;
42118;SDS011;27783;42.782;23.274;2024-02-23T03:19:20;31.05;;;27.25;;
42118;SDS011;27783;42.782;23.274;2024-02-23T03:21:47;16.73;;;14.98;;
42118;SDS011;27783;42.782;23.274;2024-02-23T03:24:13;26.60;;;20.02;;
42118;SDS011;27783;42.782;23.274;2024-02-23T03:26:38;26.23;;;16.58;;
42118;SDS011;27783;42.782;23.274;2024-02-23T03:29:03;29.35;;;19.92;;
42118;SDS011;27783;42.782;23.274;2024-02-23T03:31:29;32.10;;;23.67;;
42118;SDS011;27783;42.782;23.274;2024-02-23T03:33:54;20.00;;;15.75;;
42118;SDS011;27783;42.782;23.274;2024-02-23T03:36:20;24.20;;;15.63;;
42118;SDS011;27783;42.782;23.274;2024-02-23T03:38:46;20.98;;;15.02;;
42118;SDS011;27783;42.782;23.274;2024-02-23T03:41:12;23.40;;;16.97;;
42118;SDS011;27783;42.782;23.274;2024-02-23T03:43:37;27.73;;;17.38;;
42118;SDS011;27783;42.782;23.274;2024-02-23T03:46:03;24.48;;;18.20;;
42118;SDS011;27783;42.782;23.274;2024-02-23T03:48:28;23.85;;;17.70;;
42118;SDS011;27783;42.782;23.274;2024-02-23T03:50:54;28.40;;;18.15;;
42118;SDS011;27783;42.782;23.274;2024-02-23T03:53:19;27.63;;;18.88;;
42118;SDS011;27783;42.782;23.274;2024-02-23T03:55:44;24.90;;;18.05;;
42118;SDS011;27783;42.782;23.274;2024-02-23T03:58:10;23.10;;;17.73;;
42118;SDS011;27783;42.782;23.274;2024-02-23T04:00:35;30.67;;;20.55;;
42118;SDS011;27783;42.782;23.274;2024-02-23T04:03:01;25.75;;;19.65;;
42118;SDS011;27783;42.782;23.274;2024-02-23T04:05:26;29.77;;;19.70;;
42118;SDS011;27783;42.782;23.274;2024-02-23T04:07:51;32.70;;;20.75;;
42118;SDS011;27783;42.782;23.274;2024-02-23T04:10:17;39.45;;;23.70;;
42118;SDS011;27783;42.782;23.274;2024-02-23T04:12:46;30.23;;;21.08;;
42118;SDS011;27783;42.782;23.274;2024-02-23T04:15:11;30.77;;;20.65;;
42118;SDS011;27783;42.782;23.274;2024-02-23T04:17:37;33.15;;;20.20;;
42118;SDS011;27783;42.782;23.274;2024-02-23T04:20:05;33.97;;;23.00;;
42118;SDS011;27783;42.782;23.274;2024-02-23T04:22:32;52.13;;;28.63;;
42118;SDS011;27783;42.782;23.274;2024-02-23T04:24:57;38.05;;;20.80;;
42118;SDS011;27783;42.782;23.274;2024-02-23T04:27:23;34.40;;;21.80;;
42118;SDS011;27783;42.782;23.274;2024-02-23T04:29:48;37.67;;;23.90;;
42118;SDS011;27783;42.782;23.274;2024-02-23T04:32:13;36.22;;;23.20;;
42118;SDS011;27783;42.782;23.274;2024-02-23T04:34:39;40.85;;;27.20;;
42118;SDS011;27783;42.782;23.274;2024-02-23T04:37:06;43.03;;;25.95;;
42118;SDS011;27783;42.782;23.274;2024-02-23T04:39:31;42.20;;;26.23;;
42118;SDS011;27783;42.782;23.274;2024-02-23T04:41:57;32.90;;;22.27;;
42118;SDS011;27783;42.782;23.274;2024-02-23T04:44:23;29.73;;;21.40;;
42118;SDS011;27783;42.782;23.274;2024-02-23T04:46:48;25.05;;;17.35;;
42118;SDS011;27783;42.782;23.274;2024-02-23T04:49:14;90.47;;;55.15;;
42118;SDS011;27783;42.782;23.274;2024-02-23T04:51:39;20.58;;;17.25;;
42118;SDS011;27783;42.782;23.274;2024-02-23T04:54:04;22.92;;;17.48;;
42118;SDS011;27783;42.782;23.274;2024-02-23T04:56:31;31.37;;;18.43;;
42118;SDS011;27783;42.782;23.274;2024-02-23T04:58:58;27.30;;;18.58;;
42118;SDS011;27783;42.782;23.274;2024-02-23T05:01:24;22.67;;;16.33;;
42118;SDS011;27783;42.782;23.274;2024-02-23T05:03:49;22.05;;;15.55;;
42118;SDS011;27783;42.782;23.274;2024-02-23T05:06:15;16.58;;;13.20;;
42118;SDS011;27783;42.782;23.274;2024-02-23T05:08:40;27.25;;;18.55;;
42118;SDS011;27783;42.782;23.274;2024-02-23T05:11:06;27.35;;;18.48;;
42118;SDS011;27783;42.782;23.274;2024-02-23T05:13:32;46.15;;;34.75;;
42118;SDS011;27783;42.782;23.274;2024-02-23T05:15:57;44.20;;;31.02;;
42118;SDS011;27783;42.782;23.274;2024-02-23T05:18:23;30.63;;;21.10;;
42118;SDS011;27783;42.782;23.274;2024-02-23T05:20:48;25.88;;;18.20;;
42118;SDS011;27783;42.782;23.274;2024-02-23T05:23:14;24.67;;;18.77;;
42118;SDS011;27783;42.782;23.274;2024-02-23T05:25:43;25.80;;;17.75;;
42118;SDS011;27783;42.782;23.274;2024-02-23T05:28:08;23.67;;;18.83;;
42118;SDS011;27783;42.782;23.274;2024-02-23T05:30:33;28.25;;;18.40;;
42118;SDS011;27783;42.782;23.274;2024-02-23T05:32:59;24.23;;;20.70;;
42118;SDS011;27783;42.782;23.274;2024-02-23T05:35:27;30.15;;;23.13;;
42118;SDS011;27783;42.782;23.274;2024-02-23T05:37:52;38.20;;;28.70;;
42118;SDS011;27783;42.782;23.274;2024-02-23T05:40:18;30.98;;;19.60;;
42118;SDS011;27783;42.782;23.274;2024-02-23T05:42:44;64.35;;;38.05;;
42118;SDS011;27783;42.782;23.274;2024-02-23T05:45:09;34.20;;;22.75;;
42118;SDS011;27783;42.782;23.274;2024-02-23T05:47:39;27.60;;;18.38;;
42118;SDS011;27783;42.782;23.274;2024-02-23T05:50:04;22.02;;;17.00;;
42118;SDS011;27783;42.782;23.274;2024-02-23T05:52:31;24.73;;;18.37;;
42118;SDS011;27783;42.782;23.274;2024-02-23T05:54:57;25.13;;;17.17;;
42118;SDS011;27783;42.782;23.274;2024-02-23T05:57:24;27.52;;;17.55;;
42118;SDS011;27783;42.782;23.274;2024-02-23T05:59:53;24.10;;;17.67;;
42118;SDS011;27783;42.782;23.274;2024-02-23T06:02:20;25.63;;;19.10;;
42118;SDS011;27783;42.782;23.274;2024-02-23T06:04:46;33.58;;;21.63;;
42118;SDS011;27783;42.782;23.274;2024-02-23T06:07:12;32.47;;;23.17;;
42118;SDS011;27783;42.782;23.274;2024-02-23T06:09:38;29.38;;;20.70;;
42118;SDS011;27783;42.782;23.274;2024-02-23T06:12:04;22.92;;;18.17;;
42118;SDS011;27783;42.782;23.274;2024-02-23T06:14:30;20.60;;;16.80;;
42118;SDS011;27783;42.782;23.274;2024-02-23T06:16:56;27.15;;;18.05;;
42118;SDS011;27783;42.782;23.274;2024-02-23T06:19:21;25.30;;;18.70;;
42118;SDS011;27783;42.782;23.274;2024-02-23T06:21:49;31.58;;;20.08;;
42118;SDS011;27783;42.782;23.274;2024-02-23T06:24:16;31.00;;;20.67;;
42118;SDS011;27783;42.782;23.274;2024-02-23T06:26:42;51.08;;;28.83;;
42118;SDS011;27783;42.782;23.274;2024-02-23T06:29:07;26.45;;;17.85;;
42118;SDS011;27783;42.782;23.274;2024-02-23T06:31:37;26.33;;;18.67;;
42118;SDS011;27783;42.782;23.274;2024-02-23T06:34:04;27.25;;;19.30;;
42118;SDS011;27783;42.782;23.274;2024-02-23T06:36:31;25.05;;;18.00;;
42118;SDS011;27783;42.782;23.274;2024-02-23T06:38:57;27.80;;;19.42;;
42118;SDS011;27783;42.782;23.274;2024-02-23T06:41:22;24.60;;;18.80;;
42118;SDS011;27783;42.782;23.274;2024-02-23T06:43:48;29.05;;;17.75;;
42118;SDS011;27783;42.782;23.274;2024-02-23T06:46:13;26.30;;;18.17;;
42118;SDS011;27783;42.782;23.274;2024-02-23T06:48:39;26.38;;;17.48;;
42118;SDS011;27783;42.782;23.274;2024-02-23T06:51:04;24.83;;;18.15;;
42118;SDS011;27783;42.782;23.274;2024-02-23T06:53:30;25.80;;;17.23;;
42118;SDS011;27783;42.782;23.274;2024-02-23T06:55:56;25.50;;;17.20;;
42118;SDS011;27783;42.782;23.274;2024-02-23T06:58:24;31.80;;;19.23;;
42118;SDS011;27783;42.782;23.274;2024-02-23T07:00:49;23.73;;;18.67;;
42118;SDS011;27783;42.782;23.274;2024-02-23T07:03:15;22.70;;;18.55;;
42118;SDS011;27783;42.782;23.274;2024-02-23T07:05:41;26.27;;;20.83;;
42118;SDS011;27783;42.782;23.274;2024-02-23T07:08:11;24.85;;;18.52;;
42118;SDS011;27783;42.782;23.274;2024-02-23T07:10:37;26.67;;;18.90;;
42118;SDS011;27783;42.782;23.274;2024-02-23T07:13:02;27.52;;;17.40;;
42118;SDS011;27783;42.782;23.274;2024-02-23T07:15:28;27.45;;;19.10;;
42118;SDS011;27783;42.782;23.274;2024-02-23T07:17:55;26.65;;;20.02;;
42118;SDS011;27783;42.782;23.274;2024-02-23T07:20:21;25.75;;;18.20;;
42118;SDS011;27783;42.782;23.274;2024-02-23T07:22:47;30.23;;;20.65;;
42118;SDS011;27783;42.782;23.274;2024-02-23T07:25:16;25.20;;;20.08;;
42118;SDS011;27783;42.782;23.274;2024-02-23T07:27:42;25.88;;;19.63;;
42118;SDS011;27783;42.782;23.274;2024-02-23T07:30:08;28.70;;;18.80;;
42118;SDS011;27783;42.782;23.274;2024-02-23T07:32:34;24.98;;;19.08;;
42118;SDS011;27783;42.782;23.274;2024-02-23T07:35:00;25.35;;;19.65;;
42118;SDS011;27783;42.782;23.274;2024-02-23T07:37:26;21.92;;;18.25;;
42118;SDS011;27783;42.782;23.274;2024-02-23T07:39:52;24.42;;;19.52;;
42118;SDS011;27783;42.782;23.274;2024-02-23T07:42:17;22.50;;;18.33;;
42118;SDS011;27783;42.782;23.274;2024-02-23T07:44:44;22.63;;;18.08;;
42118;SDS011;27783;42.782;23.274;2024-02-23T07:47:09;19.65;;;16.60;;
42118;SDS011;27783;42.782;23.274;2024-02-23T07:49:35;18.63;;;14.52;;
42118;SDS011;27783;42.782;23.274;2024-02-23T07:52:01;21.85;;;15.88;;
42118;SDS011;27783;42.782;23.274;2024-02-23T07:54:28;16.38;;;13.80;;
42118;SDS011;27783;42.782;23.274;2024-02-23T07:56:53;14.77;;;13.38;;
42118;SDS011;27783;42.782;23.274;2024-02-23T07:59:18;23.15;;;15.35;;
42118;SDS011;27783;42.782;23.274;2024-02-23T08:01:44;14.35;;;11.93;;
42118;SDS011;27783;42.782;23.274;2024-02-23T08:04:10;11.60;;;10.50;;
42118;SDS011;27783;42.782;23.274;2024-02-23T08:06:35;11.18;;;9.45;;
42118;SDS011;27783;42.782;23.274;2024-02-23T08:09:01;10.95;;;8.52;;
42118;SDS011;27783;42.782;23.274;2024-02-23T08:11:27;10.43;;;7.10;;
42118;SDS011;27783;42.782;23.274;2024-02-23T08:13:53;14.98;;;9.25;;
42118;SDS011;27783;42.782;23.274;2024-02-23T08:16:18;11.57;;;10.38;;
42118;SDS011;27783;42.782;23.274;2024-02-23T08:18:44;7.53;;;6.72;;
42118;SDS011;27783;42.782;23.274;2024-02-23T08:21:10;8.38;;;6.82;;
42118;SDS011;27783;42.782;23.274;2024-02-23T08:23:36;7.13;;;6.43;;
42118;SDS011;27783;42.782;23.274;2024-02-23T08:26:02;7.95;;;7.25;;
42118;SDS011;27783;42.782;23.274;2024-02-23T08:28:27;8.07;;;7.38;;
42118;SDS011;27783;42.782;23.274;2024-02-23T08:30:53;9.90;;;7.55;;
42118;SDS011;27783;42.782;23.274;2024-02-23T08:33:18;8.70;;;7.03;;
42118;SDS011;27783;42.782;23.274;2024-02-23T08:35:44;7.53;;;6.72;;
42118;SDS011;27783;42.782;23.274;2024-02-23T08:38:10;7.28;;;6.68;;
42118;SDS011;27783;42.782;23.274;2024-02-23T08:40:36;7.93;;;7.22;;
42118;SDS011;27783;42.782;23.274;2024-02-23T08:43:01;8.52;;;7.70;;
42118;SDS011;27783;42.782;23.274;2024-02-23T08:45:28;8.07;;;6.75;;
42118;SDS011;27783;42.782;23.274;2024-02-23T08:47:53;7.45;;;6.85;;
42118;SDS011;27783;42.782;23.274;2024-02-23T08:50:19;8.68;;;6.97;;
42118;SDS011;27783;42.782;23.274;2024-02-23T08:52:44;7.50;;;6.80;;
42118;SDS011;27783;42.782;23.274;2024-02-23T08:55:09;9.57;;;6.60;;
42118;SDS011;27783;42.782;23.274;2024-02-23T08:57:36;8.30;;;7.25;;
42118;SDS011;27783;42.782;23.274;2024-02-23T09:00:02;7.32;;;6.07;;
42118;SDS011;27783;42.782;23.274;2024-02-23T09:02:30;7.13;;;6.00;;
42118;SDS011;27783;42.782;23.274;2024-02-23T09:04:56;11.38;;;8.95;;
42118;SDS011;27783;42.782;23.274;2024-02-23T09:07:21;9.38;;;7.03;;
42118;SDS011;27783;42.782;23.274;2024-02-23T09:09:47;5.93;;;5.43;;
42118;SDS011;27783;42.782;23.274;2024-02-23T09:12:14;11.45;;;6.47;;
42118;SDS011;27783;42.782;23.274;2024-02-23T09:14:41;6.93;;;5.40;;
42118;SDS011;27783;42.782;23.274;2024-02-23T09:17:08;7.60;;;5.60;;
42118;SDS011;27783;42.782;23.274;2024-02-23T09:19:34;4.82;;;4.43;;
42118;SDS011;27783;42.782;23.274;2024-02-23T09:22:01;10.05;;;4.60;;
42118;SDS011;27783;42.782;23.274;2024-02-23T09:24:27;6.47;;;3.95;;
42118;SDS011;27783;42.782;23.274;2024-02-23T09:26:53;4.40;;;4.00;;
42118;SDS011;27783;42.782;23.274;2024-02-23T09:29:20;4.40;;;4.00;;
42118;SDS011;27783;42.782;23.274;2024-02-23T09:31:46;4.10;;;3.70;;
42118;SDS011;27783;42.782;23.274;2024-02-23T09:34:12;6.28;;;3.75;;
42118;SDS011;27783;42.782;23.274;2024-02-23T09:36:37;4.55;;;3.90;;
42118;SDS011;27783;42.782;23.274;2024-02-23T09:39:03;3.78;;;3.38;;
42118;SDS011;27783;42.782;23.274;2024-02-23T09:41:29;10.05;;;2.90;;
42118;SDS011;27783;42.782;23.274;2024-02-23T09:43:57;7.22;;;2.55;;
42118;SDS011;27783;42.782;23.274;2024-02-23T09:46:23;2.67;;;2.00;;
42118;SDS011;27783;42.782;23.274;2024-02-23T09:48:50;3.83;;;2.03;;
42118;SDS011;27783;42.782;23.274;2024-02-23T09:51:17;3.22;;;2.13;;
42118;SDS011;27783;42.782;23.274;2024-02-23T09:53:43;2.10;;;1.77;;
42118;SDS011;27783;42.782;23.274;2024-02-23T09:56:09;4.40;;;2.45;;
42118;SDS011;27783;42.782;23.274;2024-02-23T09:58:36;4.90;;;2.55;;
42118;SDS011;27783;42.782;23.274;2024-02-23T10:01:03;5.10;;;2.47;;
42118;SDS011;27783;42.782;23.274;2024-02-23T10:03:29;3.60;;;1.98;;
42118;SDS011;27783;42.782;23.274;2024-02-23T10:05:58;3.78;;;2.05;;
42118;SDS011;27783;42.782;23.274;2024-02-23T10:10:52;4.40;;;2.35;;
42118;SDS011;27783;42.782;23.274;2024-02-23T10:13:18;3.85;;;2.25;;
42118;SDS011;27783;42.782;23.274;2024-02-23T10:15:49;2.75;;;2.03;;
42118;SDS011;27783;42.782;23.274;2024-02-23T10:18:17;11.68;;;2.50;;
42118;SDS011;27783;42.782;23.274;2024-02-23T10:20:44;9.00;;;2.78;;
42118;SDS011;27783;42.782;23.274;2024-02-23T10:23:09;3.28;;;2.15;;
42118;SDS011;27783;42.782;23.274;2024-02-23T10:25:36;2.63;;;2.10;;
42118;SDS011;27783;42.782;23.274;2024-02-23T10:30:32;2.58;;;2.17;;
42118;SDS011;27783;42.782;23.274;2024-02-23T10:32:59;3.05;;;2.30;;
42118;SDS011;27783;42.782;23.274;2024-02-23T10:35:25;2.38;;;2.17;;
42118;SDS011;27783;42.782;23.274;2024-02-23T10:37:52;3.05;;;2.53;;
42118;SDS011;27783;42.782;23.274;2024-02-23T10:40:19;4.15;;;2.38;;
42118;SDS011;27783;42.782;23.274;2024-02-23T10:42:47;5.45;;;2.63;;
42118;SDS011;27783;42.782;23.274;2024-02-23T10:45:16;4.80;;;2.47;;
42118;SDS011;27783;42.782;23.274;2024-02-23T10:47:43;3.65;;;1.80;;
42118;SDS011;27783;42.782;23.274;2024-02-23T10:50:09;2.35;;;2.08;;
42118;SDS011;27783;42.782;23.274;2024-02-23T10:52:40;3.25;;;2.10;;
42118;SDS011;27783;42.782;23.274;2024-02-23T10:55:07;2.20;;;2.00;;
42118;SDS011;27783;42.782;23.274;2024-02-23T10:57:34;3.07;;;1.93;;
42118;SDS011;27783;42.782;23.274;2024-02-23T11:00:00;5.13;;;2.95;;
42118;SDS011;27783;42.782;23.274;2024-02-23T11:02:28;5.70;;;2.00;;
42118;SDS011;27783;42.782;23.274;2024-02-23T11:04:57;3.00;;;2.10;;
42118;SDS011;27783;42.782;23.274;2024-02-23T11:07:23;3.08;;;2.33;;
42118;SDS011;27783;42.782;23.274;2024-02-23T11:09:53;3.25;;;2.20;;
42118;SDS011;27783;42.782;23.274;2024-02-23T11:12:29;2.38;;;1.70;;
42118;SDS011;27783;42.782;23.274;2024-02-23T11:14:58;1.70;;;1.60;;
42118;SDS011;27783;42.782;23.274;2024-02-23T11:17:31;7.13;;;1.90;;
42118;SDS011;27783;42.782;23.274;2024-02-23T11:19:57;1.60;;;1.48;;
42118;SDS011;27783;42.782;23.274;2024-02-23T11:22:24;3.90;;;1.58;;
42118;SDS011;27783;42.782;23.274;2024-02-23T11:24:59;5.45;;;1.92;;
42118;SDS011;27783;42.782;23.274;2024-02-23T11:27:33;3.25;;;1.38;;
42118;SDS011;27783;42.782;23.274;2024-02-23T11:30:01;2.20;;;1.63;;
42118;SDS011;27783;42.782;23.274;2024-02-23T11:32:38;2.80;;;1.77;;
42118;SDS011;27783;42.782;23.274;2024-02-23T11:35:05;4.13;;;1.77;;
42118;SDS011;27783;42.782;23.274;2024-02-23T11:37:32;1.70;;;1.58;;
42118;SDS011;27783;42.782;23.274;2024-02-23T11:39:58;5.97;;;2.28;;
42118;SDS011;27783;42.782;23.274;2024-02-23T11:42:28;15.45;;;3.42;;
42118;SDS011;27783;42.782;23.274;2024-02-23T11:49:50;3.90;;;1.90;;
42118;SDS011;27783;42.782;23.274;2024-02-23T11:52:15;10.32;;;2.30;;
42118;SDS011;27783;42.782;23.274;2024-02-23T11:54:42;1.83;;;1.45;;
42118;SDS011;27783;42.782;23.274;2024-02-23T11:57:07;2.55;;;1.70;;
42118;SDS011;27783;42.782;23.274;2024-02-23T11:59:33;3.30;;;1.58;;
42118;SDS011;27783;42.782;23.274;2024-02-23T12:01:58;2.10;;;1.27;;
42118;SDS011;27783;42.782;23.274;2024-02-23T12:04:26;3.97;;;1.52;;
42118;SDS011;27783;42.782;23.274;2024-02-23T12:06:52;4.80;;;1.45;;
42118;SDS011;27783;42.782;23.274;2024-02-23T12:09:17;2.67;;;1.38;;
42118;SDS011;27783;42.782;23.274;2024-02-23T12:11:43;5.32;;;1.70;;
42118;SDS011;27783;42.782;23.274;2024-02-23T12:14:09;2.88;;;1.30;;
42118;SDS011;27783;42.782;23.274;2024-02-23T12:16:35;3.00;;;1.35;;
42118;SDS011;27783;42.782;23.274;2024-02-23T12:19:03;3.33;;;1.60;;
42118;SDS011;27783;42.782;23.274;2024-02-23T12:21:28;1.75;;;1.58;;
42118;SDS011;27783;42.782;23.274;2024-02-23T12:23:54;1.40;;;1.10;;
42118;SDS011;27783;42.782;23.274;2024-02-23T12:26:19;2.42;;;1.33;;
42118;SDS011;27783;42.782;23.274;2024-02-23T12:28:46;2.35;;;1.20;;
42118;SDS011;27783;42.782;23.274;2024-02-23T12:31:11;2.08;;;1.15;;
42118;SDS011;27783;42.782;23.274;2024-02-23T12:33:37;1.67;;;1.35;;
42118;SDS011;27783;42.782;23.274;2024-02-23T12:36:07;6.53;;;1.83;;
42118;SDS011;27783;42.782;23.274;2024-02-23T12:38:34;2.38;;;1.30;;
42118;SDS011;27783;42.782;23.274;2024-02-23T12:41:00;4.00;;;2.10;;
42118;SDS011;27783;42.782;23.274;2024-02-23T12:43:27;6.10;;;2.03;;
42118;SDS011;27783;42.782;23.274;2024-02-23T12:45:53;6.97;;;1.90;;
42118;SDS011;27783;42.782;23.274;2024-02-23T12:48:21;1.92;;;1.00;;
42118;SDS011;27783;42.782;23.274;2024-02-23T12:50:47;2.63;;;1.35;;
42118;SDS011;27783;42.782;23.274;2024-02-23T12:56:00;2.03;;;1.10;;
42118;SDS011;27783;42.782;23.274;2024-02-23T12:58:26;5.07;;;1.58;;
42118;SDS011;27783;42.782;23.274;2024-02-23T13:00:52;1.88;;;1.30;;
42118;SDS011;27783;42.782;23.274;2024-02-23T13:03:17;6.93;;;1.55;;
42118;SDS011;27783;42.782;23.274;2024-02-23T13:05:43;1.83;;;1.25;;
42118;SDS011;27783;42.782;23.274;2024-02-23T13:08:08;2.70;;;1.20;;
42118;SDS011;27783;42.782;23.274;2024-02-23T13:10:34;2.50;;;1.50;;
42118;SDS011;27783;42.782;23.274;2024-02-23T13:13:00;3.95;;;1.40;;
42118;SDS011;27783;42.782;23.274;2024-02-23T13:15:26;2.55;;;1.40;;
42118;SDS011;27783;42.782;23.274;2024-02-23T13:17:51;5.15;;;1.60;;
42118;SDS011;27783;42.782;23.274;2024-02-23T13:20:17;3.50;;;1.40;;
42118;SDS011;27783;42.782;23.274;2024-02-23T13:22:43;2.50;;;1.00;;
42118;SDS011;27783;42.782;23.274;2024-02-23T13:25:08;3.97;;;1.10;;
42118;SDS011;27783;42.782;23.274;2024-02-23T13:27:33;2.35;;;1.45;;
42118;SDS011;27783;42.782;23.274;2024-02-23T13:29:59;3.88;;;1.40;;
42118;SDS011;27783;42.782;23.274;2024-02-23T13:32:24;3.25;;;1.40;;
42118;SDS011;27783;42.782;23.274;2024-02-23T13:34:50;2.20;;;1.45;;
42118;SDS011;27783;42.782;23.274;2024-02-23T13:37:17;1.90;;;1.27;;
42118;SDS011;27783;42.782;23.274;2024-02-23T13:39:43;5.20;;;2.03;;
42118;SDS011;27783;42.782;23.274;2024-02-23T13:42:09;3.00;;;1.50;;
42118;SDS011;27783;42.782;23.274;2024-02-23T13:44:35;4.18;;;1.33;;
42118;SDS011;27783;42.782;23.274;2024-02-23T13:47:02;1.35;;;1.13;;
42118;SDS011;27783;42.782;23.274;2024-02-23T13:49:28;2.08;;;1.00;;
42118;SDS011;27783;42.782;23.274;2024-02-23T13:51:53;1.75;;;1.10;;
42118;SDS011;27783;42.782;23.274;2024-02-23T13:54:21;2.35;;;1.10;;
42118;SDS011;27783;42.782;23.274;2024-02-23T13:56:46;4.82;;;1.40;;
42118;SDS011;27783;42.782;23.274;2024-02-23T13:59:12;1.80;;;1.25;;
42118;SDS011;27783;42.782;23.274;2024-02-23T14:01:38;1.75;;;1.17;;
42118;SDS011;27783;42.782;23.274;2024-02-23T14:04:07;3.28;;;1.58;;
42118;SDS011;27783;42.782;23.274;2024-02-23T14:06:35;5.00;;;1.63;;
42118;SDS011;27783;42.782;23.274;2024-02-23T14:09:00;2.83;;;1.23;;
42118;SDS011;27783;42.782;23.274;2024-02-23T14:11:29;1.63;;;1.10;;
42118;SDS011;27783;42.782;23.274;2024-02-23T14:13:55;3.53;;;1.52;;
42118;SDS011;27783;42.782;23.274;2024-02-23T14:16:21;2.00;;;1.33;;
42118;SDS011;27783;42.782;23.274;2024-02-23T14:18:48;2.55;;;1.42;;
42118;SDS011;27783;42.782;23.274;2024-02-23T14:21:14;2.42;;;1.55;;
42118;SDS011;27783;42.782;23.274;2024-02-23T14:23:40;3.17;;;1.40;;
42118;SDS011;27783;42.782;23.274;2024-02-23T14:26:05;1.23;;;1.10;;
42118;SDS011;27783;42.782;23.274;2024-02-23T14:28:30;4.63;;;1.58;;